sensor_id;sensor_type;location;lat;lon;timestamp;pressure;altitude;pressure_sealevel;temperature;humidity
9839;BME280;4958;48.150;11.506;2023-07-13T00:00:02;95685.59;;;22.40;92.75
9839;BME280;4958;48.150;11.506;2023-07-13T00:02:33;95671.69;;;22.40;92.38
9839;BME280;4958;48.150;11.506;2023-07-13T00:05:00;95672.41;;;22.35;92.73
9839;BME280;4958;48.150;11.506;2023-07-13T00:07:28;95677.16;;;22.38;92.97
9839;BME280;4958;48.150;11.506;2023-07-13T00:09:56;95654.41;;;22.44;91.32
9839;BME280;4958;48.150;11.506;2023-07-13T00:12:26;95649.19;;;22.49;90.98
9839;BME280;4958;48.150;11.506;2023-07-13T00:14:55;95636.09;;;22.49;90.68
9839;BME280;4958;48.150;11.506;2023-07-13T00:17:21;95623.50;;;22.51;90.38
9839;BME280;4958;48.150;11.506;2023-07-13T00:19:48;95628.78;;;22.56;90.82
9839;BME280;4958;48.150;11.506;2023-07-13T00:22:14;95646.34;;;22.56;91.44
9839;BME280;4958;48.150;11.506;2023-07-13T00:24:42;95645.84;;;22.59;91.16
9839;BME280;4958;48.150;11.506;2023-07-13T00:27:09;95648.19;;;22.55;91.56
9839;BME280;4958;48.150;11.506;2023-07-13T00:29:35;95619.38;;;22.60;90.50
9839;BME280;4958;48.150;11.506;2023-07-13T00:32:02;95622.22;;;22.59;90.14
9839;BME280;4958;48.150;11.506;2023-07-13T00:34:29;95618.44;;;22.45;90.15
9839;BME280;4958;48.150;11.506;2023-07-13T00:36:55;95612.72;;;22.48;89.02
9839;BME280;4958;48.150;11.506;2023-07-13T00:39:22;95595.63;;;22.45;88.52
9839;BME280;4958;48.150;11.506;2023-07-13T00:41:50;95600.09;;;22.45;88.19
9839;BME280;4958;48.150;11.506;2023-07-13T00:44:18;95600.78;;;22.35;88.37
9839;BME280;4958;48.150;11.506;2023-07-13T00:46:45;95629.16;;;22.38;89.18
9839;BME280;4958;48.150;11.506;2023-07-13T00:49:15;95620.78;;;22.41;89.45
9839;BME280;4958;48.150;11.506;2023-07-13T00:51:45;95613.69;;;22.42;89.25
9839;BME280;4958;48.150;11.506;2023-07-13T00:54:15;95632.63;;;22.44;89.72
9839;BME280;4958;48.150;11.506;2023-07-13T00:56:44;95641.28;;;22.44;90.35
9839;BME280;4958;48.150;11.506;2023-07-13T00:59:15;95631.09;;;22.48;89.55
9839;BME280;4958;48.150;11.506;2023-07-13T01:01:42;95653.50;;;22.33;91.71
9839;BME280;4958;48.150;11.506;2023-07-13T01:04:10;95623.34;;;22.36;90.73
9839;BME280;4958;48.150;11.506;2023-07-13T01:06:37;95628.84;;;22.34;91.06
9839;BME280;4958;48.150;11.506;2023-07-13T01:09:06;95614.75;;;22.40;90.08
9839;BME280;4958;48.150;11.506;2023-07-13T01:11:34;95619.69;;;22.37;90.77
9839;BME280;4958;48.150;11.506;2023-07-13T01:14:01;95601.63;;;22.40;90.50
9839;BME280;4958;48.150;11.506;2023-07-13T01:16:31;95602.72;;;22.45;90.03
9839;BME280;4958;48.150;11.506;2023-07-13T01:18:58;95604.06;;;22.47;90.33
9839;BME280;4958;48.150;11.506;2023-07-13T01:21:29;95579.63;;;22.47;89.32
9839;BME280;4958;48.150;11.506;2023-07-13T01:23:56;95564.69;;;22.47;88.82
9839;BME280;4958;48.150;11.506;2023-07-13T01:26:22;95563.91;;;22.47;88.54
9839;BME280;4958;48.150;11.506;2023-07-13T01:28:49;95551.84;;;22.51;88.14
9839;BME280;4958;48.150;11.506;2023-07-13T01:31:15;95548.97;;;22.52;87.68
9839;BME280;4958;48.150;11.506;2023-07-13T01:33:42;95561.03;;;22.53;88.25
9839;BME280;4958;48.150;11.506;2023-07-13T01:36:09;95561.03;;;22.53;88.36
9839;BME280;4958;48.150;11.506;2023-07-13T01:38:38;95556.56;;;22.49;88.28
9839;BME280;4958;48.150;11.506;2023-07-13T01:41:04;95548.94;;;22.47;88.30
9839;BME280;4958;48.150;11.506;2023-07-13T01:43:31;95566.81;;;22.50;88.58
9839;BME280;4958;48.150;11.506;2023-07-13T01:45:57;95589.34;;;22.46;89.39
9839;BME280;4958;48.150;11.506;2023-07-13T01:48:24;95615.59;;;22.46;91.33
9839;BME280;4958;48.150;11.506;2023-07-13T01:50:50;95656.41;;;22.32;93.85
9839;BME280;4958;48.150;11.506;2023-07-13T01:53:17;95673.38;;;22.24;94.57
9839;BME280;4958;48.150;11.506;2023-07-13T01:55:44;95676.22;;;22.23;95.02
9839;BME280;4958;48.150;11.506;2023-07-13T01:58:11;95680.38;;;22.19;95.29
9839;BME280;4958;48.150;11.506;2023-07-13T02:00:37;95681.19;;;22.19;94.72
9839;BME280;4958;48.150;11.506;2023-07-13T02:03:04;95663.59;;;22.20;94.24
9839;BME280;4958;48.150;11.506;2023-07-13T02:05:30;95661.72;;;22.15;94.08
9839;BME280;4958;48.150;11.506;2023-07-13T02:07:56;95688.69;;;22.11;95.26
9839;BME280;4958;48.150;11.506;2023-07-13T02:10:24;95672.22;;;22.15;94.83
9839;BME280;4958;48.150;11.506;2023-07-13T02:12:51;95670.19;;;22.22;93.90
9839;BME280;4958;48.150;11.506;2023-07-13T02:15:18;95660.50;;;22.23;93.85
9839;BME280;4958;48.150;11.506;2023-07-13T02:17:44;95647.13;;;22.24;93.35
9839;BME280;4958;48.150;11.506;2023-07-13T02:20:11;95655.50;;;22.21;93.69
9839;BME280;4958;48.150;11.506;2023-07-13T02:22:37;95657.81;;;22.18;93.81
9839;BME280;4958;48.150;11.506;2023-07-13T02:25:04;95669.03;;;22.13;94.20
9839;BME280;4958;48.150;11.506;2023-07-13T02:27:31;95680.63;;;22.17;94.52
9839;BME280;4958;48.150;11.506;2023-07-13T02:29:59;95684.34;;;22.21;94.36
9839;BME280;4958;48.150;11.506;2023-07-13T02:32:25;95697.47;;;22.21;94.46
9839;BME280;4958;48.150;11.506;2023-07-13T02:34:52;95706.91;;;22.22;95.34
9839;BME280;4958;48.150;11.506;2023-07-13T02:37:19;95709.53;;;22.22;94.42
9839;BME280;4958;48.150;11.506;2023-07-13T02:39:46;95719.00;;;22.23;94.80
9839;BME280;4958;48.150;11.506;2023-07-13T02:42:13;95728.44;;;22.24;94.83
9839;BME280;4958;48.150;11.506;2023-07-13T02:44:39;95753.75;;;22.14;96.95
9839;BME280;4958;48.150;11.506;2023-07-13T02:47:07;95751.13;;;22.14;96.18
9839;BME280;4958;48.150;11.506;2023-07-13T02:49:33;95753.72;;;22.09;97.01
9839;BME280;4958;48.150;11.506;2023-07-13T02:52:01;95764.72;;;21.89;97.51
9839;BME280;4958;48.150;11.506;2023-07-13T02:54:27;95756.38;;;21.75;95.91
9839;BME280;4958;48.150;11.506;2023-07-13T02:56:54;95741.88;;;21.67;95.63
9839;BME280;4958;48.150;11.506;2023-07-13T02:59:20;95760.94;;;21.63;97.60
9839;BME280;4958;48.150;11.506;2023-07-13T03:01:47;95779.78;;;21.60;98.38
9839;BME280;4958;48.150;11.506;2023-07-13T03:04:14;95750.72;;;21.61;97.18
9839;BME280;4958;48.150;11.506;2023-07-13T03:06:45;95730.31;;;21.63;95.54
9839;BME280;4958;48.150;11.506;2023-07-13T03:09:11;95717.75;;;21.65;94.71
9839;BME280;4958;48.150;11.506;2023-07-13T03:11:38;95739.34;;;21.73;95.80
9839;BME280;4958;48.150;11.506;2023-07-13T03:14:04;95728.06;;;21.72;94.17
9839;BME280;4958;48.150;11.506;2023-07-13T03:16:31;95729.81;;;21.66;93.64
9839;BME280;4958;48.150;11.506;2023-07-13T03:18:59;95736.44;;;21.52;94.29
9839;BME280;4958;48.150;11.506;2023-07-13T03:21:26;95728.28;;;21.49;94.31
9839;BME280;4958;48.150;11.506;2023-07-13T03:23:53;95729.78;;;21.45;95.00
9839;BME280;4958;48.150;11.506;2023-07-13T03:26:20;95735.50;;;21.42;94.24
9839;BME280;4958;48.150;11.506;2023-07-13T03:28:46;95726.06;;;21.41;94.43
9839;BME280;4958;48.150;11.506;2023-07-13T03:31:15;95715.88;;;21.44;94.14
9839;BME280;4958;48.150;11.506;2023-07-13T03:33:42;95714.38;;;21.48;93.70
9839;BME280;4958;48.150;11.506;2023-07-13T03:36:13;95704.94;;;21.47;91.76
9839;BME280;4958;48.150;11.506;2023-07-13T03:38:41;95712.56;;;21.49;92.77
9839;BME280;4958;48.150;11.506;2023-07-13T03:41:07;95712.34;;;21.55;92.64
9839;BME280;4958;48.150;11.506;2023-07-13T03:43:34;95722.31;;;21.53;93.15
9839;BME280;4958;48.150;11.506;2023-07-13T03:46:00;95680.63;;;21.52;90.52
9839;BME280;4958;48.150;11.506;2023-07-13T03:48:27;95682.16;;;21.48;90.48
9839;BME280;4958;48.150;11.506;2023-07-13T03:50:53;95683.72;;;21.49;90.65
9839;BME280;4958;48.150;11.506;2023-07-13T03:53:20;95665.56;;;21.42;89.59
9839;BME280;4958;48.150;11.506;2023-07-13T03:55:47;95653.00;;;21.44;89.02
9839;BME280;4958;48.150;11.506;2023-07-13T03:58:31;95650.16;;;21.46;88.88
9839;BME280;4958;48.150;11.506;2023-07-13T04:00:59;95659.13;;;21.50;89.50
9839;BME280;4958;48.150;11.506;2023-07-13T04:03:26;95647.53;;;21.46;88.12
9839;BME280;4958;48.150;11.506;2023-07-13T04:05:54;95639.84;;;21.39;87.33
9839;BME280;4958;48.150;11.506;2023-07-13T04:08:25;95641.53;;;21.28;87.66
9839;BME280;4958;48.150;11.506;2023-07-13T04:10:52;95669.81;;;21.26;89.01
9839;BME280;4958;48.150;11.506;2023-07-13T04:13:19;95688.13;;;21.26;90.23
9839;BME280;4958;48.150;11.506;2023-07-13T04:15:45;95693.44;;;21.31;90.04
9839;BME280;4958;48.150;11.506;2023-07-13T04:18:15;95679.31;;;21.32;89.45
9839;BME280;4958;48.150;11.506;2023-07-13T04:20:41;95689.56;;;21.34;89.49
9839;BME280;4958;48.150;11.506;2023-07-13T04:23:08;95675.16;;;21.36;88.76
9839;BME280;4958;48.150;11.506;2023-07-13T04:25:34;95670.69;;;21.32;88.93
9839;BME280;4958;48.150;11.506;2023-07-13T04:28:03;95687.19;;;21.32;89.45
9839;BME280;4958;48.150;11.506;2023-07-13T04:30:30;95695.59;;;21.34;89.48
9839;BME280;4958;48.150;11.506;2023-07-13T04:32:56;95685.16;;;21.40;89.17
9839;BME280;4958;48.150;11.506;2023-07-13T04:35:23;95694.28;;;21.37;89.74
9839;BME280;4958;48.150;11.506;2023-07-13T04:37:49;95690.66;;;21.38;89.25
9839;BME280;4958;48.150;11.506;2023-07-13T04:40:16;95699.53;;;21.37;89.15
9839;BME280;4958;48.150;11.506;2023-07-13T04:42:43;95704.25;;;21.35;89.74
9839;BME280;4958;48.150;11.506;2023-07-13T04:45:12;95678.06;;;21.35;88.14
9839;BME280;4958;48.150;11.506;2023-07-13T04:47:39;95676.22;;;21.35;87.82
9839;BME280;4958;48.150;11.506;2023-07-13T04:50:06;95682.78;;;21.38;88.14
9839;BME280;4958;48.150;11.506;2023-07-13T04:52:33;95676.50;;;21.39;87.57
9839;BME280;4958;48.150;11.506;2023-07-13T04:55:00;95689.38;;;21.41;88.19
9839;BME280;4958;48.150;11.506;2023-07-13T04:57:27;95694.38;;;21.42;88.40
9839;BME280;4958;48.150;11.506;2023-07-13T04:59:53;95700.09;;;21.39;88.59
9839;BME280;4958;48.150;11.506;2023-07-13T05:02:21;95697.47;;;21.39;88.49
9839;BME280;4958;48.150;11.506;2023-07-13T05:04:48;95707.94;;;21.39;88.67
9839;BME280;4958;48.150;11.506;2023-07-13T05:07:15;95712.34;;;21.33;88.95
9839;BME280;4958;48.150;11.506;2023-07-13T05:09:41;95737.97;;;21.31;90.11
9839;BME280;4958;48.150;11.506;2023-07-13T05:12:09;95750.34;;;21.36;90.73
9839;BME280;4958;48.150;11.506;2023-07-13T05:14:35;95743.47;;;21.30;90.82
9839;BME280;4958;48.150;11.506;2023-07-13T05:17:02;95734.56;;;21.31;90.87
9839;BME280;4958;48.150;11.506;2023-07-13T05:19:30;95741.31;;;21.27;90.94
9839;BME280;4958;48.150;11.506;2023-07-13T05:21:56;95734.56;;;21.31;90.20
9839;BME280;4958;48.150;11.506;2023-07-13T05:24:22;95769.63;;;21.13;93.16
9839;BME280;4958;48.150;11.506;2023-07-13T05:26:49;95769.63;;;21.13;92.00
9839;BME280;4958;48.150;11.506;2023-07-13T05:29:15;95778.84;;;21.16;92.86
9839;BME280;4958;48.150;11.506;2023-07-13T05:31:42;95746.22;;;21.23;90.85
9839;BME280;4958;48.150;11.506;2023-07-13T05:34:08;95715.59;;;21.24;88.56
9839;BME280;4958;48.150;11.506;2023-07-13T05:36:36;95709.88;;;21.27;88.63
9839;BME280;4958;48.150;11.506;2023-07-13T05:39:03;95718.78;;;21.26;89.02
9839;BME280;4958;48.150;11.506;2023-07-13T05:41:35;95726.94;;;21.29;89.39
9839;BME280;4958;48.150;11.506;2023-07-13T05:44:01;95729.38;;;21.36;89.29
9839;BME280;4958;48.150;11.506;2023-07-13T05:46:30;95745.75;;;21.43;90.13
9839;BME280;4958;48.150;11.506;2023-07-13T05:48:56;95744.53;;;21.51;90.20
9839;BME280;4958;48.150;11.506;2023-07-13T05:51:23;95731.81;;;21.59;89.45
9839;BME280;4958;48.150;11.506;2023-07-13T05:53:50;95748.31;;;21.60;90.47
9839;BME280;4958;48.150;11.506;2023-07-13T05:56:17;95720.06;;;21.62;88.23
9839;BME280;4958;48.150;11.506;2023-07-13T05:58:44;95712.44;;;21.60;87.60
9839;BME280;4958;48.150;11.506;2023-07-13T06:01:12;95692.50;;;21.59;87.66
9839;BME280;4958;48.150;11.506;2023-07-13T06:03:40;95712.75;;;21.64;87.81
9839;BME280;4958;48.150;11.506;2023-07-13T06:06:08;95713.53;;;21.64;87.95
9839;BME280;4958;48.150;11.506;2023-07-13T06:08:35;95731.41;;;21.67;88.92
9839;BME280;4958;48.150;11.506;2023-07-13T06:11:05;95722.59;;;21.74;88.63
9839;BME280;4958;48.150;11.506;2023-07-13T06:13:32;95708.41;;;21.75;86.91
9839;BME280;4958;48.150;11.506;2023-07-13T06:15:58;95724.22;;;21.80;88.33
9839;BME280;4958;48.150;11.506;2023-07-13T06:18:25;95751.38;;;21.90;88.78
9839;BME280;4958;48.150;11.506;2023-07-13T06:23:17;95715.91;;;22.04;87.06
9839;BME280;4958;48.150;11.506;2023-07-13T06:25:44;95688.88;;;22.04;85.53
9839;BME280;4958;48.150;11.506;2023-07-13T06:28:12;95616.66;;;21.96;82.02
9839;BME280;4958;48.150;11.506;2023-07-13T06:30:38;95624.59;;;22.01;82.09
9839;BME280;4958;48.150;11.506;2023-07-13T06:33:05;95625.47;;;22.07;82.21
9839;BME280;4958;48.150;11.506;2023-07-13T06:35:31;95627.78;;;22.03;81.59
9839;BME280;4958;48.150;11.506;2023-07-13T06:37:59;95590.03;;;22.04;79.86
9839;BME280;4958;48.150;11.506;2023-07-13T06:40:25;95610.47;;;22.02;80.80
9839;BME280;4958;48.150;11.506;2023-07-13T06:42:54;95594.72;;;22.02;79.40
9839;BME280;4958;48.150;11.506;2023-07-13T06:45:22;95630.00;;;21.95;80.96
9839;BME280;4958;48.150;11.506;2023-07-13T06:47:48;95607.16;;;21.90;80.04
9839;BME280;4958;48.150;11.506;2023-07-13T06:50:15;95579.63;;;21.88;78.18
9839;BME280;4958;48.150;11.506;2023-07-13T06:52:41;95561.75;;;21.85;77.26
9839;BME280;4958;48.150;11.506;2023-07-13T06:55:08;95562.72;;;21.79;76.87
9839;BME280;4958;48.150;11.506;2023-07-13T06:57:35;95606.06;;;21.86;79.71
9839;BME280;4958;48.150;11.506;2023-07-13T07:00:01;95598.28;;;21.91;79.08
9839;BME280;4958;48.150;11.506;2023-07-13T07:02:29;95597.25;;;21.97;78.77
9839;BME280;4958;48.150;11.506;2023-07-13T07:04:55;95609.19;;;22.05;78.89
9839;BME280;4958;48.150;11.506;2023-07-13T07:07:23;95633.56;;;22.05;79.95
9839;BME280;4958;48.150;11.506;2023-07-13T07:09:50;95629.97;;;22.12;80.11
9839;BME280;4958;48.150;11.506;2023-07-13T07:12:16;95624.44;;;22.13;79.75
9839;BME280;4958;48.150;11.506;2023-07-13T07:14:43;95644.84;;;22.06;79.91
9839;BME280;4958;48.150;11.506;2023-07-13T07:17:09;95625.03;;;21.93;79.47
9839;BME280;4958;48.150;11.506;2023-07-13T07:19:37;95614.97;;;21.85;79.40
9839;BME280;4958;48.150;11.506;2023-07-13T07:22:03;95617.78;;;21.79;80.01
9839;BME280;4958;48.150;11.506;2023-07-13T07:24:30;95636.75;;;21.86;80.61
9839;BME280;4958;48.150;11.506;2023-07-13T07:26:56;95615.84;;;21.96;79.45
9839;BME280;4958;48.150;11.506;2023-07-13T07:29:23;95623.22;;;21.99;79.41
9839;BME280;4958;48.150;11.506;2023-07-13T07:31:51;95612.03;;;22.03;78.42
9839;BME280;4958;48.150;11.506;2023-07-13T07:34:18;95593.50;;;22.10;77.50
9839;BME280;4958;48.150;11.506;2023-07-13T07:36:46;95592.94;;;22.08;77.60
9839;BME280;4958;48.150;11.506;2023-07-13T07:39:12;95603.38;;;22.03;77.56
9839;BME280;4958;48.150;11.506;2023-07-13T07:41:39;95574.44;;;21.98;76.19
9839;BME280;4958;48.150;11.506;2023-07-13T07:44:05;95587.66;;;22.03;76.65
9839;BME280;4958;48.150;11.506;2023-07-13T07:46:32;95591.44;;;21.90;77.17
9839;BME280;4958;48.150;11.506;2023-07-13T07:48:58;95599.06;;;21.92;77.35
9839;BME280;4958;48.150;11.506;2023-07-13T07:51:25;95628.88;;;21.86;77.89
9839;BME280;4958;48.150;11.506;2023-07-13T07:53:54;95663.50;;;21.88;79.76
9839;BME280;4958;48.150;11.506;2023-07-13T07:56:20;95693.56;;;21.80;80.92
9839;BME280;4958;48.150;11.506;2023-07-13T07:58:47;95687.75;;;21.78;80.66
9839;BME280;4958;48.150;11.506;2023-07-13T08:01:13;95620.41;;;21.79;76.92
9839;BME280;4958;48.150;11.506;2023-07-13T08:03:41;95575.91;;;21.84;75.25
9839;BME280;4958;48.150;11.506;2023-07-13T08:06:07;95533.91;;;21.79;73.74
9839;BME280;4958;48.150;11.506;2023-07-13T08:08:34;95549.88;;;21.77;73.99
9839;BME280;4958;48.150;11.506;2023-07-13T08:11:05;95529.31;;;21.64;72.88
9839;BME280;4958;48.150;11.506;2023-07-13T08:13:32;95546.06;;;21.63;73.39
9839;BME280;4958;48.150;11.506;2023-07-13T08:15:59;95553.38;;;21.61;73.91
9839;BME280;4958;48.150;11.506;2023-07-13T08:18:25;95569.59;;;21.58;74.68
9839;BME280;4958;48.150;11.506;2023-07-13T08:20:53;95560.69;;;21.59;74.14
9839;BME280;4958;48.150;11.506;2023-07-13T08:23:21;95549.97;;;21.60;73.39
9839;BME280;4958;48.150;11.506;2023-07-13T08:25:50;95540.13;;;21.46;73.30
9839;BME280;4958;48.150;11.506;2023-07-13T08:28:18;95536.78;;;21.50;72.68
9839;BME280;4958;48.150;11.506;2023-07-13T08:30:45;95528.91;;;21.50;72.46
9839;BME280;4958;48.150;11.506;2023-07-13T08:33:14;95495.16;;;21.54;70.91
9839;BME280;4958;48.150;11.506;2023-07-13T08:35:40;95458.97;;;21.51;69.42
9839;BME280;4958;48.150;11.506;2023-07-13T08:38:07;95467.91;;;21.55;69.93
9839;BME280;4958;48.150;11.506;2023-07-13T08:40:33;95432.03;;;21.60;68.65
9839;BME280;4958;48.150;11.506;2023-07-13T08:43:00;95437.09;;;21.67;68.27
9839;BME280;4958;48.150;11.506;2023-07-13T08:45:33;95439.00;;;21.77;68.18
9839;BME280;4958;48.150;11.506;2023-07-13T08:48:09;95422.31;;;21.88;67.55
9839;BME280;4958;48.150;11.506;2023-07-13T08:50:45;95361.53;;;21.91;65.23
9839;BME280;4958;48.150;11.506;2023-07-13T08:53:15;95321.69;;;21.94;64.02
9839;BME280;4958;48.150;11.506;2023-07-13T08:55:43;95311.72;;;21.91;64.08
9839;BME280;4958;48.150;11.506;2023-07-13T08:58:11;95269.78;;;21.96;62.71
9839;BME280;4958;48.150;11.506;2023-07-13T09:00:48;95294.69;;;21.93;63.32
9839;BME280;4958;48.150;11.506;2023-07-13T09:03:20;95221.00;;;21.95;61.73
9839;BME280;4958;48.150;11.506;2023-07-13T09:05:52;95262.69;;;21.91;62.43
9839;BME280;4958;48.150;11.506;2023-07-13T09:08:38;95240.94;;;21.91;61.93
9839;BME280;4958;48.150;11.506;2023-07-13T09:11:21;95219.97;;;21.96;61.44
9839;BME280;4958;48.150;11.506;2023-07-13T09:13:57;95225.00;;;22.02;61.13
9839;BME280;4958;48.150;11.506;2023-07-13T09:16:34;95196.13;;;21.97;61.04
9839;BME280;4958;48.150;11.506;2023-07-13T09:19:11;95217.19;;;22.08;61.12
9839;BME280;4958;48.150;11.506;2023-07-13T09:21:42;95244.47;;;22.12;61.74
9839;BME280;4958;48.150;11.506;2023-07-13T09:24:31;95210.88;;;22.14;60.59
9839;BME280;4958;48.150;11.506;2023-07-13T09:27:05;95232.66;;;22.19;61.69
9839;BME280;4958;48.150;11.506;2023-07-13T09:29:37;95172.91;;;22.31;59.74
9839;BME280;4958;48.150;11.506;2023-07-13T09:32:11;95172.91;;;22.36;59.99
9839;BME280;4958;48.150;11.506;2023-07-13T09:34:39;95168.19;;;22.38;59.81
9839;BME280;4958;48.150;11.506;2023-07-13T09:37:05;95158.22;;;22.40;59.26
9839;BME280;4958;48.150;11.506;2023-07-13T09:39:35;95135.41;;;22.41;58.63
9839;BME280;4958;48.150;11.506;2023-07-13T09:42:14;95064.56;;;22.36;57.36
9839;BME280;4958;48.150;11.506;2023-07-13T09:44:51;94980.88;;;22.39;54.58
9839;BME280;4958;48.150;11.506;2023-07-13T09:47:21;95002.66;;;22.50;55.94
9839;BME280;4958;48.150;11.506;2023-07-13T09:49:54;94984.78;;;22.62;55.15
9839;BME280;4958;48.150;11.506;2023-07-13T09:52:21;95016.25;;;22.83;55.76
9839;BME280;4958;48.150;11.506;2023-07-13T09:54:50;95018.84;;;22.98;56.03
9839;BME280;4958;48.150;11.506;2023-07-13T09:57:17;94989.88;;;23.18;55.17
9839;BME280;4958;48.150;11.506;2023-07-13T09:59:47;95019.97;;;23.41;56.11
9839;BME280;4958;48.150;11.506;2023-07-13T10:02:32;94961.38;;;23.40;54.52
9839;BME280;4958;48.150;11.506;2023-07-13T10:05:01;94940.47;;;23.25;54.49
9839;BME280;4958;48.150;11.506;2023-07-13T10:07:29;94892.13;;;23.26;53.10
9839;BME280;4958;48.150;11.506;2023-07-13T10:09:57;94906.25;;;23.30;53.41
9839;BME280;4958;48.150;11.506;2023-07-13T10:12:26;94831.50;;;23.18;51.61
9839;BME280;4958;48.150;11.506;2023-07-13T10:14:54;94826.22;;;23.23;51.61
9839;BME280;4958;48.150;11.506;2023-07-13T10:17:28;94851.81;;;23.41;51.81
9839;BME280;4958;48.150;11.506;2023-07-13T10:20:00;94948.94;;;23.61;54.00
9839;BME280;4958;48.150;11.506;2023-07-13T10:22:36;94905.84;;;23.57;52.81
9839;BME280;4958;48.150;11.506;2023-07-13T10:25:15;94937.91;;;23.59;53.63
9839;BME280;4958;48.150;11.506;2023-07-13T10:27:44;94918.84;;;23.77;53.01
9839;BME280;4958;48.150;11.506;2023-07-13T10:30:14;94877.72;;;23.87;51.90
9839;BME280;4958;48.150;11.506;2023-07-13T10:32:43;94771.19;;;23.94;50.14
9839;BME280;4958;48.150;11.506;2023-07-13T10:35:12;94766.91;;;24.22;50.00
9839;BME280;4958;48.150;11.506;2023-07-13T10:37:45;94774.44;;;24.34;50.04
9839;BME280;4958;48.150;11.506;2023-07-13T10:40:16;94749.19;;;24.33;49.95
9839;BME280;4958;48.150;11.506;2023-07-13T10:42:47;94733.28;;;24.19;50.02
9839;BME280;4958;48.150;11.506;2023-07-13T10:45:16;94781.19;;;24.16;50.91
9839;BME280;4958;48.150;11.506;2023-07-13T10:47:45;94808.38;;;24.06;50.73
9839;BME280;4958;48.150;11.506;2023-07-13T10:50:17;94820.13;;;24.14;51.40
9839;BME280;4958;48.150;11.506;2023-07-13T10:52:47;94840.28;;;24.48;51.39
9839;BME280;4958;48.150;11.506;2023-07-13T10:55:34;94850.94;;;24.61;51.18
9839;BME280;4958;48.150;11.506;2023-07-13T10:58:03;94857.88;;;24.52;51.78
9839;BME280;4958;48.150;11.506;2023-07-13T11:00:43;94796.06;;;24.50;50.35
9839;BME280;4958;48.150;11.506;2023-07-13T11:03:16;94783.09;;;24.34;50.12
9839;BME280;4958;48.150;11.506;2023-07-13T11:05:48;94832.50;;;24.42;51.21
9839;BME280;4958;48.150;11.506;2023-07-13T11:08:20;94847.63;;;24.51;51.22
9839;BME280;4958;48.150;11.506;2023-07-13T11:10:53;94860.75;;;24.56;51.53
9839;BME280;4958;48.150;11.506;2023-07-13T11:13:38;94730.97;;;24.55;49.02
9839;BME280;4958;48.150;11.506;2023-07-13T11:16:34;94691.94;;;24.62;48.27
9839;BME280;4958;48.150;11.506;2023-07-13T11:19:25;94725.66;;;24.60;48.57
9839;BME280;4958;48.150;11.506;2023-07-13T11:22:03;94656.25;;;24.70;47.47
9839;BME280;4958;48.150;11.506;2023-07-13T11:24:58;94700.22;;;24.69;48.49
9839;BME280;4958;48.150;11.506;2023-07-13T11:27:38;94736.81;;;24.71;48.77
9839;BME280;4958;48.150;11.506;2023-07-13T11:30:21;94699.19;;;25.03;48.05
9839;BME280;4958;48.150;11.506;2023-07-13T11:32:51;94588.19;;;25.51;45.98
9839;BME280;4958;48.150;11.506;2023-07-13T11:35:22;94505.84;;;25.81;44.60
9839;BME280;4958;48.150;11.506;2023-07-13T11:37:50;94514.78;;;25.71;45.56
9839;BME280;4958;48.150;11.506;2023-07-13T11:40:17;94500.41;;;25.77;44.79
9839;BME280;4958;48.150;11.506;2023-07-13T11:42:44;94475.03;;;25.90;44.56
9839;BME280;4958;48.150;11.506;2023-07-13T11:45:19;94477.97;;;26.11;44.72
9839;BME280;4958;48.150;11.506;2023-07-13T11:47:48;94418.69;;;26.31;43.40
9839;BME280;4958;48.150;11.506;2023-07-13T11:50:20;94364.66;;;26.37;42.48
9839;BME280;4958;48.150;11.506;2023-07-13T11:52:48;94393.59;;;26.51;42.70
9839;BME280;4958;48.150;11.506;2023-07-13T11:55:20;94450.56;;;26.43;44.08
9839;BME280;4958;48.150;11.506;2023-07-13T11:57:50;94368.28;;;26.58;42.58
9839;BME280;4958;48.150;11.506;2023-07-13T12:00:21;94314.22;;;26.56;41.26
9839;BME280;4958;48.150;11.506;2023-07-13T12:02:52;94261.78;;;26.71;40.71
9839;BME280;4958;48.150;11.506;2023-07-13T12:05:21;94355.50;;;26.34;42.45
9839;BME280;4958;48.150;11.506;2023-07-13T12:07:48;94367.00;;;26.07;42.67
9839;BME280;4958;48.150;11.506;2023-07-13T12:10:20;94305.41;;;25.81;42.00
9839;BME280;4958;48.150;11.506;2023-07-13T12:12:48;94400.31;;;25.72;43.90
9839;BME280;4958;48.150;11.506;2023-07-13T12:15:16;94467.03;;;25.59;44.60
9839;BME280;4958;48.150;11.506;2023-07-13T12:17:43;94454.75;;;25.55;44.87
9839;BME280;4958;48.150;11.506;2023-07-13T12:20:21;94534.50;;;25.46;45.82
9839;BME280;4958;48.150;11.506;2023-07-13T12:22:51;94524.06;;;25.55;45.26
9839;BME280;4958;48.150;11.506;2023-07-13T12:25:18;94555.72;;;25.91;46.30
9839;BME280;4958;48.150;11.506;2023-07-13T12:27:49;94511.50;;;26.10;45.05
9839;BME280;4958;48.150;11.506;2023-07-13T12:30:26;94468.72;;;26.00;44.22
9839;BME280;4958;48.150;11.506;2023-07-13T12:32:58;94440.97;;;25.80;44.37
9839;BME280;4958;48.150;11.506;2023-07-13T12:35:28;94453.94;;;25.68;44.54
9839;BME280;4958;48.150;11.506;2023-07-13T12:37:58;94491.06;;;25.58;45.09
9839;BME280;4958;48.150;11.506;2023-07-13T12:40:31;94465.28;;;25.41;44.48
9839;BME280;4958;48.150;11.506;2023-07-13T12:43:02;94488.56;;;25.61;44.83
9839;BME280;4958;48.150;11.506;2023-07-13T12:45:32;94455.09;;;25.98;44.03
9839;BME280;4958;48.150;11.506;2023-07-13T12:48:04;94441.19;;;26.37;44.04
9839;BME280;4958;48.150;11.506;2023-07-13T12:50:37;94436.31;;;26.53;43.56
9839;BME280;4958;48.150;11.506;2023-07-13T12:53:12;94361.88;;;26.42;42.71
9839;BME280;4958;48.150;11.506;2023-07-13T12:55:43;94315.81;;;26.17;41.79
9839;BME280;4958;48.150;11.506;2023-07-13T12:58:17;94353.94;;;26.02;42.39
9839;BME280;4958;48.150;11.506;2023-07-13T13:00:49;94343.56;;;26.06;42.56
9839;BME280;4958;48.150;11.506;2023-07-13T13:03:29;94373.47;;;26.01;43.21
9839;BME280;4958;48.150;11.506;2023-07-13T13:06:04;94318.69;;;25.98;42.41
9839;BME280;4958;48.150;11.506;2023-07-13T13:08:32;94337.84;;;26.12;42.48
9839;BME280;4958;48.150;11.506;2023-07-13T13:11:02;94340.66;;;26.16;42.19
9839;BME280;4958;48.150;11.506;2023-07-13T13:13:29;94327.78;;;26.14;42.17
9839;BME280;4958;48.150;11.506;2023-07-13T13:15:55;94280.41;;;26.18;41.88
9839;BME280;4958;48.150;11.506;2023-07-13T13:18:23;94231.28;;;26.31;41.16
9839;BME280;4958;48.150;11.506;2023-07-13T13:20:50;94240.94;;;26.44;40.84